sensor_id;sensor_type;location;lat;lon;timestamp;temperature;humidity
15113;DHT22;7657;50.140;7.076;2022-09-12T00:01:56;16.70;99.90
15113;DHT22;7657;50.140;7.076;2022-09-12T00:04:23;16.70;99.90
15113;DHT22;7657;50.140;7.076;2022-09-12T00:06:51;16.60;99.90
15113;DHT22;7657;50.140;7.076;2022-09-12T00:09:18;16.70;99.90
15113;DHT22;7657;50.140;7.076;2022-09-12T00:11:45;16.60;99.90
15113;DHT22;7657;50.140;7.076;2022-09-12T00:14:15;16.60;99.90
15113;DHT22;7657;50.140;7.076;2022-09-12T00:16:43;16.60;99.90
15113;DHT22;7657;50.140;7.076;2022-09-12T00:19:11;16.60;99.90
15113;DHT22;7657;50.140;7.076;2022-09-12T00:21:39;16.60;99.90
15113;DHT22;7657;50.140;7.076;2022-09-12T00:24:07;16.50;99.90
15113;DHT22;7657;50.140;7.076;2022-09-12T00:26:34;16.40;99.90
15113;DHT22;7657;50.140;7.076;2022-09-12T00:29:01;16.30;99.90
15113;DHT22;7657;50.140;7.076;2022-09-12T00:31:29;16.40;99.90
15113;DHT22;7657;50.140;7.076;2022-09-12T00:33:58;16.40;99.90
15113;DHT22;7657;50.140;7.076;2022-09-12T00:36:29;16.40;99.90
15113;DHT22;7657;50.140;7.076;2022-09-12T00:38:57;16.30;99.90
15113;DHT22;7657;50.140;7.076;2022-09-12T00:41:25;16.40;99.90
15113;DHT22;7657;50.140;7.076;2022-09-12T00:43:54;16.40;99.90
15113;DHT22;7657;50.140;7.076;2022-09-12T00:46:27;16.40;99.90
15113;DHT22;7657;50.140;7.076;2022-09-12T00:49:00;16.30;99.90
15113;DHT22;7657;50.140;7.076;2022-09-12T00:51:31;16.30;99.90
15113;DHT22;7657;50.140;7.076;2022-09-12T00:54:02;16.30;99.90
15113;DHT22;7657;50.140;7.076;2022-09-12T00:56:30;16.20;99.90
15113;DHT22;7657;50.140;7.076;2022-09-12T00:59:01;16.20;99.90
15113;DHT22;7657;50.140;7.076;2022-09-12T01:01:30;16.30;99.90
15113;DHT22;7657;50.140;7.076;2022-09-12T01:03:59;16.30;99.90
15113;DHT22;7657;50.140;7.076;2022-09-12T01:06:28;16.30;99.90
15113;DHT22;7657;50.140;7.076;2022-09-12T01:08:55;16.20;99.90
15113;DHT22;7657;50.140;7.076;2022-09-12T01:11:23;16.30;99.90
15113;DHT22;7657;50.140;7.076;2022-09-12T01:13:51;16.30;99.90
15113;DHT22;7657;50.140;7.076;2022-09-12T01:16:18;16.30;99.90
15113;DHT22;7657;50.140;7.076;2022-09-12T01:18:57;16.30;99.90
15113;DHT22;7657;50.140;7.076;2022-09-12T01:21:36;16.20;99.90
15113;DHT22;7657;50.140;7.076;2022-09-12T01:30:26;16.20;99.90
15113;DHT22;7657;50.140;7.076;2022-09-12T01:33:21;16.20;99.90
15113;DHT22;7657;50.140;7.076;2022-09-12T01:36:00;16.20;99.90
15113;DHT22;7657;50.140;7.076;2022-09-12T01:38:35;16.20;99.90
15113;DHT22;7657;50.140;7.076;2022-09-12T01:41:10;16.20;99.90
15113;DHT22;7657;50.140;7.076;2022-09-12T01:43:48;16.20;99.90
15113;DHT22;7657;50.140;7.076;2022-09-12T01:46:23;16.20;99.90
15113;DHT22;7657;50.140;7.076;2022-09-12T01:48:56;16.20;99.90
15113;DHT22;7657;50.140;7.076;2022-09-12T01:51:30;16.20;99.90
15113;DHT22;7657;50.140;7.076;2022-09-12T01:54:01;16.20;99.90
15113;DHT22;7657;50.140;7.076;2022-09-12T01:56:33;16.10;99.90
15113;DHT22;7657;50.140;7.076;2022-09-12T01:59:05;16.10;99.90
15113;DHT22;7657;50.140;7.076;2022-09-12T02:01:39;16.10;99.90
15113;DHT22;7657;50.140;7.076;2022-09-12T02:04:12;16.00;99.90
15113;DHT22;7657;50.140;7.076;2022-09-12T02:06:45;16.00;99.90
15113;DHT22;7657;50.140;7.076;2022-09-12T02:09:19;16.00;99.90
15113;DHT22;7657;50.140;7.076;2022-09-12T02:11:49;16.00;99.90
15113;DHT22;7657;50.140;7.076;2022-09-12T02:14:21;16.00;99.90
15113;DHT22;7657;50.140;7.076;2022-09-12T02:16:54;16.00;99.90
15113;DHT22;7657;50.140;7.076;2022-09-12T02:19:27;16.00;99.90
15113;DHT22;7657;50.140;7.076;2022-09-12T02:21:57;16.00;99.90
15113;DHT22;7657;50.140;7.076;2022-09-12T02:24:28;16.00;99.90
15113;DHT22;7657;50.140;7.076;2022-09-12T02:26:58;16.00;99.90
15113;DHT22;7657;50.140;7.076;2022-09-12T02:29:27;15.90;99.90
15113;DHT22;7657;50.140;7.076;2022-09-12T02:31:58;15.90;99.90
15113;DHT22;7657;50.140;7.076;2022-09-12T02:34:33;15.90;99.90
15113;DHT22;7657;50.140;7.076;2022-09-12T02:37:11;15.90;99.90
15113;DHT22;7657;50.140;7.076;2022-09-12T02:39:41;15.90;99.90
15113;DHT22;7657;50.140;7.076;2022-09-12T02:42:08;15.90;99.90
15113;DHT22;7657;50.140;7.076;2022-09-12T02:44:36;15.80;99.90
15113;DHT22;7657;50.140;7.076;2022-09-12T02:47:07;15.90;99.90
15113;DHT22;7657;50.140;7.076;2022-09-12T02:49:36;15.80;99.90
15113;DHT22;7657;50.140;7.076;2022-09-12T02:52:03;15.80;99.90
15113;DHT22;7657;50.140;7.076;2022-09-12T02:54:30;15.80;99.90
15113;DHT22;7657;50.140;7.076;2022-09-12T02:56:57;15.80;99.90
15113;DHT22;7657;50.140;7.076;2022-09-12T02:59:25;15.80;99.90
15113;DHT22;7657;50.140;7.076;2022-09-12T03:02:12;15.80;99.90
15113;DHT22;7657;50.140;7.076;2022-09-12T03:05:02;15.80;99.90
15113;DHT22;7657;50.140;7.076;2022-09-12T03:07:51;15.80;99.90
15113;DHT22;7657;50.140;7.076;2022-09-12T03:10:26;15.80;99.90
15113;DHT22;7657;50.140;7.076;2022-09-12T03:13:09;15.80;99.90
15113;DHT22;7657;50.140;7.076;2022-09-12T03:15:48;15.80;99.90
15113;DHT22;7657;50.140;7.076;2022-09-12T03:18:28;15.80;99.90
15113;DHT22;7657;50.140;7.076;2022-09-12T03:21:03;15.80;99.90
15113;DHT22;7657;50.140;7.076;2022-09-12T03:23:39;15.70;99.90
15113;DHT22;7657;50.140;7.076;2022-09-12T03:26:15;15.70;99.90
15113;DHT22;7657;50.140;7.076;2022-09-12T03:28:43;15.70;99.90
15113;DHT22;7657;50.140;7.076;2022-09-12T03:31:12;15.70;99.90
15113;DHT22;7657;50.140;7.076;2022-09-12T03:33:41;15.70;99.90
15113;DHT22;7657;50.140;7.076;2022-09-12T03:36:14;15.60;99.90
15113;DHT22;7657;50.140;7.076;2022-09-12T03:38:42;15.70;99.90
15113;DHT22;7657;50.140;7.076;2022-09-12T03:41:09;15.70;99.90
15113;DHT22;7657;50.140;7.076;2022-09-12T03:43:36;15.60;99.90
15113;DHT22;7657;50.140;7.076;2022-09-12T03:46:03;15.60;99.90
15113;DHT22;7657;50.140;7.076;2022-09-12T03:48:30;15.60;99.90
15113;DHT22;7657;50.140;7.076;2022-09-12T03:51:00;15.60;99.90
15113;DHT22;7657;50.140;7.076;2022-09-12T03:53:27;15.60;99.90
15113;DHT22;7657;50.140;7.076;2022-09-12T03:55:54;15.60;99.90
15113;DHT22;7657;50.140;7.076;2022-09-12T03:58:21;15.60;99.90
15113;DHT22;7657;50.140;7.076;2022-09-12T04:00:48;15.60;99.90
15113;DHT22;7657;50.140;7.076;2022-09-12T04:03:15;15.60;99.90
15113;DHT22;7657;50.140;7.076;2022-09-12T04:05:43;15.60;99.90
15113;DHT22;7657;50.140;7.076;2022-09-12T04:08:12;15.60;99.90
15113;DHT22;7657;50.140;7.076;2022-09-12T04:10:39;15.60;99.90
15113;DHT22;7657;50.140;7.076;2022-09-12T04:13:06;15.60;99.90
15113;DHT22;7657;50.140;7.076;2022-09-12T04:15:33;15.60;99.90
15113;DHT22;7657;50.140;7.076;2022-09-12T04:18:00;15.60;99.90
15113;DHT22;7657;50.140;7.076;2022-09-12T04:20:27;15.50;99.90
15113;DHT22;7657;50.140;7.076;2022-09-12T04:22:54;15.50;99.90
15113;DHT22;7657;50.140;7.076;2022-09-12T04:25:22;15.40;99.90
15113;DHT22;7657;50.140;7.076;2022-09-12T04:27:49;15.40;99.90
15113;DHT22;7657;50.140;7.076;2022-09-12T04:30:16;15.40;99.90
15113;DHT22;7657;50.140;7.076;2022-09-12T04:32:43;15.50;99.90
15113;DHT22;7657;50.140;7.076;2022-09-12T04:35:10;15.40;99.90
15113;DHT22;7657;50.140;7.076;2022-09-12T04:37:38;15.40;99.90
15113;DHT22;7657;50.140;7.076;2022-09-12T04:40:06;15.30;99.90
15113;DHT22;7657;50.140;7.076;2022-09-12T04:42:34;15.30;99.90
15113;DHT22;7657;50.140;7.076;2022-09-12T04:45:01;15.30;99.90
15113;DHT22;7657;50.140;7.076;2022-09-12T04:47:30;15.30;99.90
15113;DHT22;7657;50.140;7.076;2022-09-12T04:49:57;15.20;99.90
15113;DHT22;7657;50.140;7.076;2022-09-12T04:52:24;15.20;99.90
15113;DHT22;7657;50.140;7.076;2022-09-12T04:54:51;15.20;99.90
15113;DHT22;7657;50.140;7.076;2022-09-12T04:57:18;15.20;99.90
15113;DHT22;7657;50.140;7.076;2022-09-12T04:59:47;15.20;99.90
15113;DHT22;7657;50.140;7.076;2022-09-12T05:02:14;15.20;99.90
15113;DHT22;7657;50.140;7.076;2022-09-12T05:04:41;15.20;99.90
15113;DHT22;7657;50.140;7.076;2022-09-12T05:07:08;15.20;99.90
15113;DHT22;7657;50.140;7.076;2022-09-12T05:09:34;15.20;99.90
15113;DHT22;7657;50.140;7.076;2022-09-12T05:12:02;15.20;99.90
15113;DHT22;7657;50.140;7.076;2022-09-12T05:14:29;15.20;99.90
15113;DHT22;7657;50.140;7.076;2022-09-12T05:16:58;15.20;99.90
15113;DHT22;7657;50.140;7.076;2022-09-12T05:19:26;15.20;99.90
15113;DHT22;7657;50.140;7.076;2022-09-12T05:21:53;15.20;99.90
15113;DHT22;7657;50.140;7.076;2022-09-12T05:24:19;15.20;99.90
15113;DHT22;7657;50.140;7.076;2022-09-12T05:26:46;15.20;99.90
15113;DHT22;7657;50.140;7.076;2022-09-12T05:29:13;15.20;99.90
15113;DHT22;7657;50.140;7.076;2022-09-12T05:31:40;15.20;99.90
15113;DHT22;7657;50.140;7.076;2022-09-12T05:34:09;15.20;99.90
15113;DHT22;7657;50.140;7.076;2022-09-12T05:36:36;15.10;99.90
15113;DHT22;7657;50.140;7.076;2022-09-12T05:39:03;15.10;99.90
15113;DHT22;7657;50.140;7.076;2022-09-12T05:41:31;15.10;99.90
15113;DHT22;7657;50.140;7.076;2022-09-12T05:44:00;15.20;99.90
15113;DHT22;7657;50.140;7.076;2022-09-12T05:46:28;15.10;99.90
15113;DHT22;7657;50.140;7.076;2022-09-12T05:48:56;15.10;99.90
15113;DHT22;7657;50.140;7.076;2022-09-12T05:51:26;15.10;99.90
15113;DHT22;7657;50.140;7.076;2022-09-12T05:53:54;15.20;99.90
15113;DHT22;7657;50.140;7.076;2022-09-12T05:56:24;15.20;99.90
15113;DHT22;7657;50.140;7.076;2022-09-12T05:58:53;15.20;99.90
15113;DHT22;7657;50.140;7.076;2022-09-12T06:01:21;15.20;99.90
15113;DHT22;7657;50.140;7.076;2022-09-12T06:03:50;15.30;99.90
15113;DHT22;7657;50.140;7.076;2022-09-12T06:06:18;15.30;99.90
15113;DHT22;7657;50.140;7.076;2022-09-12T06:08:48;15.30;99.90
15113;DHT22;7657;50.140;7.076;2022-09-12T06:11:17;15.30;99.90
15113;DHT22;7657;50.140;7.076;2022-09-12T06:13:44;15.20;99.90
15113;DHT22;7657;50.140;7.076;2022-09-12T06:16:13;15.20;99.90
15113;DHT22;7657;50.140;7.076;2022-09-12T06:18:41;15.20;99.90
15113;DHT22;7657;50.140;7.076;2022-09-12T06:21:09;15.20;99.90
15113;DHT22;7657;50.140;7.076;2022-09-12T06:23:38;15.30;99.90
15113;DHT22;7657;50.140;7.076;2022-09-12T06:26:08;15.30;99.90
15113;DHT22;7657;50.140;7.076;2022-09-12T06:28:37;15.20;99.90
15113;DHT22;7657;50.140;7.076;2022-09-12T06:31:05;15.30;99.90
15113;DHT22;7657;50.140;7.076;2022-09-12T06:33:34;15.30;99.90
15113;DHT22;7657;50.140;7.076;2022-09-12T06:36:03;15.30;99.90
15113;DHT22;7657;50.140;7.076;2022-09-12T06:38:30;15.30;99.90
15113;DHT22;7657;50.140;7.076;2022-09-12T06:40:57;15.40;99.90
15113;DHT22;7657;50.140;7.076;2022-09-12T06:43:27;15.40;99.90
15113;DHT22;7657;50.140;7.076;2022-09-12T06:45:54;15.30;99.90
15113;DHT22;7657;50.140;7.076;2022-09-12T06:48:21;15.40;99.90
15113;DHT22;7657;50.140;7.076;2022-09-12T06:50:55;15.40;99.90
15113;DHT22;7657;50.140;7.076;2022-09-12T06:53:24;15.40;99.90
15113;DHT22;7657;50.140;7.076;2022-09-12T06:55:55;15.40;99.90
15113;DHT22;7657;50.140;7.076;2022-09-12T06:58:22;15.50;99.90
15113;DHT22;7657;50.140;7.076;2022-09-12T07:00:51;15.50;99.90
15113;DHT22;7657;50.140;7.076;2022-09-12T07:03:18;15.50;99.90
15113;DHT22;7657;50.140;7.076;2022-09-12T07:05:45;15.60;99.90
15113;DHT22;7657;50.140;7.076;2022-09-12T07:08:12;15.60;99.90
15113;DHT22;7657;50.140;7.076;2022-09-12T07:10:39;15.70;99.90
15113;DHT22;7657;50.140;7.076;2022-09-12T07:13:06;15.70;99.90
15113;DHT22;7657;50.140;7.076;2022-09-12T07:15:34;15.70;99.90
15113;DHT22;7657;50.140;7.076;2022-09-12T07:18:03;15.80;99.90
15113;DHT22;7657;50.140;7.076;2022-09-12T07:20:30;15.80;99.90
15113;DHT22;7657;50.140;7.076;2022-09-12T07:22:58;15.90;99.90
15113;DHT22;7657;50.140;7.076;2022-09-12T07:25:25;15.90;99.90
15113;DHT22;7657;50.140;7.076;2022-09-12T07:27:52;15.90;99.90
15113;DHT22;7657;50.140;7.076;2022-09-12T07:30:20;16.00;99.90
15113;DHT22;7657;50.140;7.076;2022-09-12T07:32:51;16.00;99.90
15113;DHT22;7657;50.140;7.076;2022-09-12T07:35:19;16.10;99.90
15113;DHT22;7657;50.140;7.076;2022-09-12T07:37:47;16.10;99.90
15113;DHT22;7657;50.140;7.076;2022-09-12T07:40:14;16.20;99.90
15113;DHT22;7657;50.140;7.076;2022-09-12T07:42:40;16.20;99.90
15113;DHT22;7657;50.140;7.076;2022-09-12T07:45:08;16.20;99.90
15113;DHT22;7657;50.140;7.076;2022-09-12T07:47:35;16.30;99.90
15113;DHT22;7657;50.140;7.076;2022-09-12T07:50:02;16.30;99.90
15113;DHT22;7657;50.140;7.076;2022-09-12T07:52:31;16.40;99.90
15113;DHT22;7657;50.140;7.076;2022-09-12T07:54:58;16.40;99.90
15113;DHT22;7657;50.140;7.076;2022-09-12T07:57:24;16.40;99.90
15113;DHT22;7657;50.140;7.076;2022-09-12T07:59:51;16.50;99.90
15113;DHT22;7657;50.140;7.076;2022-09-12T08:02:18;16.60;99.90
15113;DHT22;7657;50.140;7.076;2022-09-12T08:04:46;16.60;99.90
15113;DHT22;7657;50.140;7.076;2022-09-12T08:07:14;16.60;99.90
15113;DHT22;7657;50.140;7.076;2022-09-12T08:09:44;16.70;99.90
15113;DHT22;7657;50.140;7.076;2022-09-12T08:12:11;16.70;99.90
15113;DHT22;7657;50.140;7.076;2022-09-12T08:14:38;16.70;99.90
15113;DHT22;7657;50.140;7.076;2022-09-12T08:17:05;16.80;99.90
15113;DHT22;7657;50.140;7.076;2022-09-12T08:19:32;16.80;99.90
15113;DHT22;7657;50.140;7.076;2022-09-12T08:21:59;16.90;99.90
15113;DHT22;7657;50.140;7.076;2022-09-12T08:24:26;16.90;99.90
15113;DHT22;7657;50.140;7.076;2022-09-12T08:26:54;16.90;99.90
15113;DHT22;7657;50.140;7.076;2022-09-12T08:29:21;16.90;99.90
15113;DHT22;7657;50.140;7.076;2022-09-12T08:31:48;17.00;99.90
15113;DHT22;7657;50.140;7.076;2022-09-12T08:34:15;17.00;99.90
15113;DHT22;7657;50.140;7.076;2022-09-12T08:36:43;17.00;99.90
15113;DHT22;7657;50.140;7.076;2022-09-12T08:39:11;17.00;99.90
15113;DHT22;7657;50.140;7.076;2022-09-12T08:41:41;17.10;99.90
15113;DHT22;7657;50.140;7.076;2022-09-12T08:44:35;17.10;99.90
15113;DHT22;7657;50.140;7.076;2022-09-12T08:47:17;17.10;99.90
15113;DHT22;7657;50.140;7.076;2022-09-12T08:49:52;17.20;99.90
15113;DHT22;7657;50.140;7.076;2022-09-12T08:52:24;17.20;99.90
15113;DHT22;7657;50.140;7.076;2022-09-12T08:54:52;17.20;99.90
15113;DHT22;7657;50.140;7.076;2022-09-12T08:57:21;17.30;99.90
15113;DHT22;7657;50.140;7.076;2022-09-12T08:59:50;17.30;99.90
15113;DHT22;7657;50.140;7.076;2022-09-12T09:02:43;17.30;99.90
15113;DHT22;7657;50.140;7.076;2022-09-12T09:05:17;17.30;99.90
15113;DHT22;7657;50.140;7.076;2022-09-12T09:08:06;17.40;99.90
15113;DHT22;7657;50.140;7.076;2022-09-12T09:10:42;17.40;99.90
15113;DHT22;7657;50.140;7.076;2022-09-12T09:13:23;17.40;99.90
15113;DHT22;7657;50.140;7.076;2022-09-12T09:16:12;17.40;99.90
15113;DHT22;7657;50.140;7.076;2022-09-12T09:18:42;17.50;99.90
15113;DHT22;7657;50.140;7.076;2022-09-12T09:21:18;17.50;99.90
15113;DHT22;7657;50.140;7.076;2022-09-12T09:23:51;17.50;99.90
15113;DHT22;7657;50.140;7.076;2022-09-12T09:26:21;17.50;99.90
15113;DHT22;7657;50.140;7.076;2022-09-12T09:28:54;17.50;99.90
15113;DHT22;7657;50.140;7.076;2022-09-12T09:31:27;17.50;99.90
15113;DHT22;7657;50.140;7.076;2022-09-12T09:33:56;17.50;99.90
15113;DHT22;7657;50.140;7.076;2022-09-12T09:36:33;17.60;99.90
15113;DHT22;7657;50.140;7.076;2022-09-12T09:39:04;17.60;99.90
15113;DHT22;7657;50.140;7.076;2022-09-12T09:41:44;17.60;99.90
15113;DHT22;7657;50.140;7.076;2022-09-12T09:44:16;17.60;99.90
15113;DHT22;7657;50.140;7.076;2022-09-12T09:46:45;17.60;99.90
15113;DHT22;7657;50.140;7.076;2022-09-12T09:49:13;17.70;99.90
15113;DHT22;7657;50.140;7.076;2022-09-12T09:51:42;17.70;99.90
15113;DHT22;7657;50.140;7.076;2022-09-12T09:54:15;17.80;99.90
15113;DHT22;7657;50.140;7.076;2022-09-12T09:56:44;17.80;99.90
15113;DHT22;7657;50.140;7.076;2022-09-12T09:59:13;17.80;99.90
15113;DHT22;7657;50.140;7.076;2022-09-12T10:01:47;17.90;99.90
15113;DHT22;7657;50.140;7.076;2022-09-12T10:04:19;17.90;99.90
15113;DHT22;7657;50.140;7.076;2022-09-12T10:06:47;17.90;99.90
15113;DHT22;7657;50.140;7.076;2022-09-12T10:09:22;18.00;99.90
15113;DHT22;7657;50.140;7.076;2022-09-12T10:11:51;18.00;99.90
15113;DHT22;7657;50.140;7.076;2022-09-12T10:14:34;18.00;99.90
15113;DHT22;7657;50.140;7.076;2022-09-12T10:17:21;18.10;99.90
15113;DHT22;7657;50.140;7.076;2022-09-12T10:19:49;18.10;99.90
15113;DHT22;7657;50.140;7.076;2022-09-12T10:22:18;18.20;99.90
15113;DHT22;7657;50.140;7.076;2022-09-12T10:24:47;18.20;99.90
15113;DHT22;7657;50.140;7.076;2022-09-12T10:27:19;18.20;99.90
15113;DHT22;7657;50.140;7.076;2022-09-12T10:29:51;18.20;99.90
15113;DHT22;7657;50.140;7.076;2022-09-12T10:32:23;18.30;99.90
15113;DHT22;7657;50.140;7.076;2022-09-12T10:34:56;18.30;99.90
15113;DHT22;7657;50.140;7.076;2022-09-12T10:37:29;18.30;99.90
15113;DHT22;7657;50.140;7.076;2022-09-12T10:39:58;18.40;99.90
15113;DHT22;7657;50.140;7.076;2022-09-12T10:42:46;18.40;99.90
15113;DHT22;7657;50.140;7.076;2022-09-12T10:45:18;18.40;99.90
15113;DHT22;7657;50.140;7.076;2022-09-12T10:47:47;18.50;99.90
15113;DHT22;7657;50.140;7.076;2022-09-12T10:50:29;18.50;99.90
15113;DHT22;7657;50.140;7.076;2022-09-12T10:53:17;18.60;99.90
15113;DHT22;7657;50.140;7.076;2022-09-12T10:56:06;18.60;99.90
15113;DHT22;7657;50.140;7.076;2022-09-12T10:58:54;18.70;99.90
15113;DHT22;7657;50.140;7.076;2022-09-12T11:01:38;18.70;99.90
15113;DHT22;7657;50.140;7.076;2022-09-12T11:04:30;18.80;99.90
15113;DHT22;7657;50.140;7.076;2022-09-12T11:07:18;18.80;99.90
15113;DHT22;7657;50.140;7.076;2022-09-12T11:09:52;18.90;99.90
15113;DHT22;7657;50.140;7.076;2022-09-12T11:12:28;18.90;99.90
15113;DHT22;7657;50.140;7.076;2022-09-12T11:15:07;19.00;99.90
15113;DHT22;7657;50.140;7.076;2022-09-12T11:17:46;19.10;99.90
15113;DHT22;7657;50.140;7.076;2022-09-12T11:20:39;19.10;99.90
15113;DHT22;7657;50.140;7.076;2022-09-12T11:23:34;19.10;99.90
15113;DHT22;7657;50.140;7.076;2022-09-12T11:26:15;19.10;99.90
15113;DHT22;7657;50.140;7.076;2022-09-12T11:28:51;19.10;99.90
15113;DHT22;7657;50.140;7.076;2022-09-12T11:31:36;19.10;99.90
15113;DHT22;7657;50.140;7.076;2022-09-12T11:34:07;19.20;99.90
15113;DHT22;7657;50.140;7.076;2022-09-12T11:36:42;19.20;99.90
15113;DHT22;7657;50.140;7.076;2022-09-12T11:39:13;19.30;99.90
15113;DHT22;7657;50.140;7.076;2022-09-12T11:41:42;19.30;99.90
15113;DHT22;7657;50.140;7.076;2022-09-12T11:44:14;19.30;99.90
15113;DHT22;7657;50.140;7.076;2022-09-12T11:46:43;19.50;99.90
15113;DHT22;7657;50.140;7.076;2022-09-12T11:49:18;19.50;99.90
15113;DHT22;7657;50.140;7.076;2022-09-12T11:51:52;19.60;99.90
15113;DHT22;7657;50.140;7.076;2022-09-12T11:54:23;19.60;99.90
15113;DHT22;7657;50.140;7.076;2022-09-12T11:56:57;19.70;99.90
15113;DHT22;7657;50.140;7.076;2022-09-12T11:59:41;19.70;99.90
15113;DHT22;7657;50.140;7.076;2022-09-12T12:02:11;19.70;99.90
15113;DHT22;7657;50.140;7.076;2022-09-12T12:04:55;19.70;99.90
15113;DHT22;7657;50.140;7.076;2022-09-12T12:07:29;19.70;99.90
15113;DHT22;7657;50.140;7.076;2022-09-12T12:09:57;19.80;99.90
15113;DHT22;7657;50.140;7.076;2022-09-12T12:12:26;19.90;99.90
15113;DHT22;7657;50.140;7.076;2022-09-12T12:14:55;19.90;99.90
15113;DHT22;7657;50.140;7.076;2022-09-12T12:17:24;19.90;99.90
15113;DHT22;7657;50.140;7.076;2022-09-12T12:20:03;19.90;99.90
15113;DHT22;7657;50.140;7.076;2022-09-12T12:22:32;20.00;99.90
15113;DHT22;7657;50.140;7.076;2022-09-12T12:25:04;20.00;99.90
15113;DHT22;7657;50.140;7.076;2022-09-12T12:27:50;20.10;99.90
15113;DHT22;7657;50.140;7.076;2022-09-12T12:36:40;20.20;99.90
15113;DHT22;7657;50.140;7.076;2022-09-12T12:46:05;20.40;99.90
15113;DHT22;7657;50.140;7.076;2022-09-12T12:48:43;20.50;99.90
15113;DHT22;7657;50.140;7.076;2022-09-12T12:51:43;20.60;99.90
15113;DHT22;7657;50.140;7.076;2022-09-12T12:54:29;20.60;99.90
15113;DHT22;7657;50.140;7.076;2022-09-12T12:57:04;20.70;99.90
15113;DHT22;7657;50.140;7.076;2022-09-12T12:59:32;20.80;99.90
15113;DHT22;7657;50.140;7.076;2022-09-12T13:02:00;20.80;99.90
15113;DHT22;7657;50.140;7.076;2022-09-12T13:04:30;20.90;99.90
15113;DHT22;7657;50.140;7.076;2022-09-12T13:07:02;20.90;99.90
15113;DHT22;7657;50.140;7.076;2022-09-12T13:09:32;20.90;99.90
15113;DHT22;7657;50.140;7.076;2022-09-12T13:12:04;21.10;99.90
15113;DHT22;7657;50.140;7.076;2022-09-12T13:14:52;21.20;99.90
15113;DHT22;7657;50.140;7.076;2022-09-12T13:17:25;21.40;99.90
15113;DHT22;7657;50.140;7.076;2022-09-12T13:20:01;21.60;99.90
15113;DHT22;7657;50.140;7.076;2022-09-12T13:22:38;21.80;99.90
15113;DHT22;7657;50.140;7.076;2022-09-12T13:25:27;22.10;99.90
15113;DHT22;7657;50.140;7.076;2022-09-12T13:27:59;22.40;99.90
15113;DHT22;7657;50.140;7.076;2022-09-12T13:30:27;22.60;99.90
15113;DHT22;7657;50.140;7.076;2022-09-12T13:33:07;22.90;99.90
15113;DHT22;7657;50.140;7.076;2022-09-12T13:35:41;23.00;99.90
15113;DHT22;7657;50.140;7.076;2022-09-12T13:38:15;23.30;99.90
15113;DHT22;7657;50.140;7.076;2022-09-12T13:40:58;23.60;99.90
15113;DHT22;7657;50.140;7.076;2022-09-12T13:43:36;23.80;99.90
15113;DHT22;7657;50.140;7.076;2022-09-12T13:46:06;24.00;99.90
15113;DHT22;7657;50.140;7.076;2022-09-12T13:48:35;24.20;99.90
15113;DHT22;7657;50.140;7.076;2022-09-12T13:51:03;24.50;99.90
15113;DHT22;7657;50.140;7.076;2022-09-12T13:53:37;24.70;99.90
15113;DHT22;7657;50.140;7.076;2022-09-12T13:56:07;24.90;99.90
15113;DHT22;7657;50.140;7.076;2022-09-12T13:58:34;25.20;99.90
15113;DHT22;7657;50.140;7.076;2022-09-12T14:01:04;25.40;99.90
15113;DHT22;7657;50.140;7.076;2022-09-12T14:03:38;25.70;99.90
15113;DHT22;7657;50.140;7.076;2022-09-12T14:06:23;25.90;99.90
15113;DHT22;7657;50.140;7.076;2022-09-12T14:08:50;26.30;99.90
15113;DHT22;7657;50.140;7.076;2022-09-12T14:11:22;26.50;99.90
15113;DHT22;7657;50.140;7.076;2022-09-12T14:13:51;26.80;99.90
15113;DHT22;7657;50.140;7.076;2022-09-12T14:16:18;26.90;99.90
15113;DHT22;7657;50.140;7.076;2022-09-12T14:18:50;27.20;99.90
15113;DHT22;7657;50.140;7.076;2022-09-12T14:21:30;27.50;99.90
15113;DHT22;7657;50.140;7.076;2022-09-12T14:23:59;27.80;99.90
15113;DHT22;7657;50.140;7.076;2022-09-12T14:26:27;28.00;99.90
15113;DHT22;7657;50.140;7.076;2022-09-12T14:28:57;28.30;99.90
15113;DHT22;7657;50.140;7.076;2022-09-12T14:31:28;28.40;99.90
15113;DHT22;7657;50.140;7.076;2022-09-12T14:34:08;28.70;99.90
15113;DHT22;7657;50.140;7.076;2022-09-12T14:36:40;29.10;99.90
15113;DHT22;7657;50.140;7.076;2022-09-12T14:39:19;29.40;99.90
15113;DHT22;7657;50.140;7.076;2022-09-12T14:41:48;29.60;99.90
15113;DHT22;7657;50.140;7.076;2022-09-12T14:44:18;29.80;99.90
15113;DHT22;7657;50.140;7.076;2022-09-12T14:46:46;30.00;99.90
15113;DHT22;7657;50.140;7.076;2022-09-12T14:49:17;30.10;99.90
15113;DHT22;7657;50.140;7.076;2022-09-12T14:51:53;30.50;99.90
15113;DHT22;7657;50.140;7.076;2022-09-12T14:54:39;31.10;99.90
15113;DHT22;7657;50.140;7.076;2022-09-12T14:57:31;31.10;97.50
15113;DHT22;7657;50.140;7.076;2022-09-12T15:00:19;30.90;94.80
15113;DHT22;7657;50.140;7.076;2022-09-12T15:02:47;31.20;97.50
15113;DHT22;7657;50.140;7.076;2022-09-12T15:05:19;31.60;95.30
15113;DHT22;7657;50.140;7.076;2022-09-12T15:07:54;31.70;94.10
15113;DHT22;7657;50.140;7.076;2022-09-12T15:10:25;31.90;93.20
15113;DHT22;7657;50.140;7.076;2022-09-12T15:13:12;31.90;92.30
15113;DHT22;7657;50.140;7.076;2022-09-12T15:15:41;32.00;89.50
15113;DHT22;7657;50.140;7.076;2022-09-12T15:18:08;31.90;90.30
15113;DHT22;7657;50.140;7.076;2022-09-12T15:20:37;31.70;89.20
15113;DHT22;7657;50.140;7.076;2022-09-12T15:23:09;32.20;91.40
15113;DHT22;7657;50.140;7.076;2022-09-12T15:25:38;32.40;90.40
15113;DHT22;7657;50.140;7.076;2022-09-12T15:28:14;32.70;90.10
15113;DHT22;7657;50.140;7.076;2022-09-12T15:30:42;33.10;85.40
15113;DHT22;7657;50.140;7.076;2022-09-12T15:33:09;33.10;82.50
15113;DHT22;7657;50.140;7.076;2022-09-12T15:35:39;33.30;84.60
15113;DHT22;7657;50.140;7.076;2022-09-12T15:38:06;33.70;81.30
15113;DHT22;7657;50.140;7.076;2022-09-12T15:40:33;34.00;80.50
15113;DHT22;7657;50.140;7.076;2022-09-12T15:43:00;34.10;80.00
15113;DHT22;7657;50.140;7.076;2022-09-12T15:45:30;34.20;80.10
15113;DHT22;7657;50.140;7.076;2022-09-12T15:47:57;34.40;78.60
15113;DHT22;7657;50.140;7.076;2022-09-12T15:50:24;34.50;76.80
15113;DHT22;7657;50.140;7.076;2022-09-12T15:52:54;34.50;77.00
15113;DHT22;7657;50.140;7.076;2022-09-12T15:55:23;34.40;75.00
15113;DHT22;7657;50.140;7.076;2022-09-12T15:57:50;34.30;74.60
15113;DHT22;7657;50.140;7.076;2022-09-12T16:00:17;33.90;73.30
15113;DHT22;7657;50.140;7.076;2022-09-12T16:02:45;33.70;71.30
15113;DHT22;7657;50.140;7.076;2022-09-12T16:05:14;32.70;70.30
15113;DHT22;7657;50.140;7.076;2022-09-12T16:07:42;32.50;73.40
15113;DHT22;7657;50.140;7.076;2022-09-12T16:10:13;32.40;74.70
15113;DHT22;7657;50.140;7.076;2022-09-12T16:12:42;32.20;74.60
15113;DHT22;7657;50.140;7.076;2022-09-12T16:15:13;32.20;77.50
15113;DHT22;7657;50.140;7.076;2022-09-12T16:17:40;32.00;77.30
15113;DHT22;7657;50.140;7.076;2022-09-12T16:20:08;31.70;78.10
15113;DHT22;7657;50.140;7.076;2022-09-12T16:22:35;31.30;78.00
15113;DHT22;7657;50.140;7.076;2022-09-12T16:25:03;31.00;78.10
15113;DHT22;7657;50.140;7.076;2022-09-12T16:27:32;30.60;76.40
15113;DHT22;7657;50.140;7.076;2022-09-12T16:29:59;30.30;80.50
15113;DHT22;7657;50.140;7.076;2022-09-12T16:32:26;30.00;81.70